Terminal Aerodrome Forecast
Issued by NWS Boise, ID

Home | Current Version | Previous Version | Text Only | Print | Product List | Glossary On
Versions: 1 2 3 4 5 6 7 8 9 10 11 12 13 14 15 16 17 18
000
FTUS45 KBOI 231733
TAFBOI
TAF
KBOI 231733Z 2318/2418 30020G30KT P6SM VCSH SCT020 OVC100
      TEMPO 2318/2322 30025G40KT 6SM -SN BR BKN020
     FM240100 30011KT P6SM BKN100=

USA.gov is the U.S. government's official web portal to all federal, state and local government web resources and services.